createdAt,value
2019-03-15T00:02:02.109Z,12.68
2019-03-15T00:04:40.067Z,11.68
2019-03-15T00:07:10.089Z,11.65
2019-03-15T00:12:10.202Z,12.23
2019-03-15T00:14:40.478Z,11.33
2019-03-15T00:17:10.805Z,11.45
2019-03-15T00:19:41.083Z,11.63
2019-03-15T00:22:11.507Z,11.22
2019-03-15T00:27:11.731Z,10.78
2019-03-15T00:29:42.038Z,12.00
2019-03-15T00:32:14.203Z,12.25
2019-03-15T00:34:44.561Z,12.30
2019-03-15T00:37:14.927Z,13.10
2019-03-15T00:39:45.283Z,12.58
2019-03-15T00:42:15.968Z,11.68
2019-03-15T00:44:46.311Z,11.80
2019-03-15T00:47:17.394Z,12.78
2019-03-15T00:49:47.930Z,10.75
2019-03-15T00:52:18.555Z,13.15
2019-03-15T00:57:18.373Z,11.73
2019-03-15T00:59:48.690Z,13.88
2019-03-15T01:02:18.954Z,12.90
2019-03-15T01:04:49.294Z,14.50
2019-03-15T01:07:19.717Z,14.28
2019-03-15T01:09:50.043Z,13.85
2019-03-15T01:12:20.348Z,13.78
2019-03-15T01:14:50.780Z,12.95
2019-03-15T01:17:21.458Z,14.45
2019-03-15T01:19:51.761Z,13.38
2019-03-15T01:22:24.219Z,13.62
2019-03-15T01:24:54.483Z,13.98
2019-03-15T01:27:24.878Z,14.83
2019-03-15T01:29:55.213Z,12.93
2019-03-15T01:32:25.478Z,14.43
2019-03-15T01:34:55.807Z,14.00
2019-03-15T01:37:26.071Z,12.90
2019-03-15T01:39:56.345Z,14.07
2019-03-15T01:42:26.674Z,14.00
2019-03-15T01:44:57.020Z,14.20
2019-03-15T01:47:27.339Z,15.00
2019-03-15T01:49:58.601Z,13.53
2019-03-15T01:52:29.051Z,12.95
2019-03-15T01:54:59.422Z,13.58
2019-03-15T01:57:29.924Z,12.60
2019-03-15T02:02:29.796Z,12.33
2019-03-15T02:05:00.061Z,13.13
2019-03-15T02:07:30.351Z,12.35
2019-03-15T02:10:00.710Z,12.73
2019-03-15T02:12:31.043Z,12.70
2019-03-15T02:15:01.430Z,11.73
2019-03-15T02:17:31.882Z,12.55
2019-03-15T02:20:03.277Z,12.10
2019-03-15T02:22:33.715Z,12.93
2019-03-15T02:27:33.638Z,12.10
2019-03-15T02:30:06.052Z,12.70
2019-03-15T02:32:36.415Z,12.25
2019-03-15T02:37:36.516Z,13.53
2019-03-15T02:40:07.067Z,13.72
2019-03-15T02:45:06.810Z,12.88
2019-03-15T02:47:37.131Z,13.45
2019-03-15T02:50:08.379Z,13.62
2019-03-15T02:52:38.869Z,13.75
2019-03-15T02:55:09.415Z,14.95
2019-03-15T03:00:09.908Z,14.58
2019-03-15T03:05:10.366Z,14.93
2019-03-15T03:07:40.679Z,14.90
2019-03-15T03:10:11.029Z,16.42
2019-03-15T03:12:41.430Z,15.25
2019-03-15T03:15:11.905Z,14.50
2019-03-15T03:17:42.226Z,17.35
2019-03-15T03:20:13.517Z,14.98
2019-03-15T03:22:43.926Z,16.15
2019-03-15T03:25:14.607Z,15.35
2019-03-15T03:30:16.883Z,15.98
2019-03-15T03:32:47.255Z,15.83
2019-03-15T03:35:17.581Z,15.18
2019-03-15T03:37:48.005Z,15.10
2019-03-15T03:40:20.430Z,14.93
2019-03-15T03:42:50.426Z,13.85
2019-03-15T03:45:23.227Z,13.35
2019-03-15T03:47:52.771Z,14.93
2019-03-15T03:50:23.162Z,14.90
2019-03-15T03:52:53.548Z,15.05
2019-03-15T03:55:23.911Z,14.10
2019-03-15T03:57:54.268Z,14.07
2019-03-15T04:00:24.557Z,15.23
2019-03-15T04:02:54.894Z,14.95
2019-03-15T04:05:25.257Z,14.30
2019-03-15T04:07:55.709Z,14.25
2019-03-15T04:10:26.188Z,14.45
2019-03-15T04:12:56.662Z,13.60
2019-03-15T04:15:27.001Z,14.45
2019-03-15T04:17:57.431Z,15.20
2019-03-15T04:22:58.383Z,13.40
2019-03-15T04:25:28.974Z,15.23
2019-03-15T04:27:59.537Z,14.78
2019-03-15T04:30:29.796Z,13.72
2019-03-15T04:33:00.126Z,15.03
2019-03-15T04:35:30.502Z,15.08
2019-03-15T04:38:00.813Z,15.65
2019-03-15T04:40:31.114Z,14.85
2019-03-15T04:43:01.383Z,15.63
2019-03-15T04:45:31.708Z,15.80
2019-03-15T04:48:02.178Z,15.25
2019-03-15T04:53:02.094Z,16.48
2019-03-15T04:55:32.462Z,15.93
2019-03-15T04:58:02.788Z,14.10
2019-03-15T05:00:33.104Z,14.20
2019-03-15T05:03:03.434Z,14.25
2019-03-15T05:05:33.837Z,14.95
2019-03-15T05:08:04.153Z,15.20
2019-03-15T05:10:34.452Z,14.95
2019-03-15T05:13:04.909Z,13.30
2019-03-15T05:15:36.948Z,14.85
2019-03-15T05:18:07.262Z,14.40
2019-03-15T05:20:38.516Z,14.15
2019-03-15T05:23:08.931Z,14.38
2019-03-15T05:25:39.685Z,14.53
2019-03-15T05:28:10.080Z,12.68
2019-03-15T05:30:40.479Z,12.37
2019-03-15T05:33:10.810Z,12.33
2019-03-15T05:35:41.125Z,11.60
2019-03-15T05:38:11.444Z,11.63
2019-03-15T05:40:41.801Z,11.15
2019-03-15T05:43:12.191Z,10.72
2019-03-15T05:45:42.514Z,13.20
2019-03-15T05:48:12.893Z,11.05
2019-03-15T05:50:43.353Z,11.45
2019-03-15T05:53:13.657Z,11.50
2019-03-15T05:55:44.042Z,12.30
2019-03-15T05:58:14.467Z,12.20
2019-03-15T06:03:14.496Z,11.08
2019-03-15T06:05:44.879Z,10.85
2019-03-15T06:08:15.356Z,9.63
2019-03-15T06:13:15.702Z,9.83
2019-03-15T06:18:15.973Z,9.70
2019-03-15T06:20:47.267Z,10.40
2019-03-15T06:23:17.846Z,11.55
2019-03-15T06:25:48.385Z,9.75
2019-03-15T06:28:18.783Z,9.30
2019-03-15T06:33:19.312Z,9.23
2019-03-15T06:35:49.773Z,9.08
2019-03-15T06:38:20.201Z,9.08
2019-03-15T06:40:50.521Z,7.87
2019-03-15T06:43:20.850Z,9.68
2019-03-15T06:45:51.185Z,9.28
2019-03-15T06:48:21.443Z,9.55
2019-03-15T06:50:51.783Z,10.08
2019-03-15T06:53:22.055Z,10.23
2019-03-15T06:55:52.395Z,10.05
2019-03-15T06:58:22.867Z,10.30
2019-03-15T07:00:54.779Z,10.35
2019-03-15T07:03:25.314Z,10.23
2019-03-15T07:05:55.684Z,10.82
2019-03-15T07:08:26.031Z,10.78
2019-03-15T07:10:56.432Z,10.50
2019-03-15T07:13:26.723Z,9.43
2019-03-15T07:15:57.054Z,8.88
2019-03-15T07:18:27.459Z,9.70
2019-03-15T07:20:58.246Z,10.50
2019-03-15T07:23:31.425Z,9.35
2019-03-15T07:26:02.178Z,9.60
2019-03-15T07:31:02.291Z,9.63
2019-03-15T07:36:02.739Z,9.57
2019-03-15T07:41:02.908Z,10.03
2019-03-15T07:43:33.218Z,9.23
2019-03-15T07:46:03.709Z,10.50
2019-03-15T07:48:34.364Z,10.58
2019-03-15T07:53:37.729Z,10.03
2019-03-15T07:56:08.200Z,10.50
2019-03-15T07:58:38.706Z,9.85
2019-03-15T08:01:09.299Z,9.98
2019-03-15T08:03:40.005Z,9.58
2019-03-15T08:06:10.487Z,10.18
2019-03-15T08:08:41.430Z,10.48
2019-03-15T08:11:12.214Z,10.72
2019-03-15T08:13:42.819Z,11.10
2019-03-15T08:16:13.208Z,11.50
2019-03-15T08:18:43.521Z,11.28
2019-03-15T08:21:14.857Z,10.55
2019-03-15T08:23:45.183Z,10.78
2019-03-15T08:26:15.656Z,11.63
2019-03-15T08:28:45.971Z,11.93
2019-03-15T08:31:16.305Z,13.10
2019-03-15T08:33:46.631Z,12.63
2019-03-15T08:36:20.166Z,12.58
2019-03-15T08:38:49.009Z,12.98
2019-03-15T08:41:19.378Z,11.60
2019-03-15T08:43:49.758Z,11.65
2019-03-15T08:46:20.061Z,12.63
2019-03-15T08:48:50.461Z,13.88
2019-03-15T08:51:20.741Z,13.68
2019-03-15T08:53:51.067Z,14.90
2019-03-15T08:56:21.675Z,14.58
2019-03-15T08:58:52.128Z,14.38
2019-03-15T09:03:55.106Z,13.38
2019-03-15T09:06:25.506Z,14.50
2019-03-15T09:08:55.822Z,14.93
2019-03-15T09:11:26.187Z,13.38
2019-03-15T09:13:56.547Z,14.87
2019-03-15T09:16:26.871Z,15.88
2019-03-15T09:18:57.193Z,13.45
2019-03-15T09:21:28.439Z,15.90
2019-03-15T09:23:58.777Z,13.80
2019-03-15T09:28:58.827Z,13.78
2019-03-15T09:31:33.636Z,12.78
2019-03-15T09:34:01.125Z,13.00
2019-03-15T09:36:33.910Z,13.10
2019-03-15T09:39:04.217Z,16.37
2019-03-15T09:41:39.727Z,29.05
2019-03-15T09:44:06.645Z,15.88
2019-03-15T09:46:37.007Z,13.72
2019-03-15T09:49:07.882Z,12.30
2019-03-15T09:51:38.641Z,12.80
2019-03-15T09:54:09.291Z,18.70
2019-03-15T09:56:40.149Z,13.95
2019-03-15T09:59:10.780Z,13.75
2019-03-15T10:01:41.550Z,12.98
2019-03-15T10:04:12.201Z,14.98
2019-03-15T10:06:43.089Z,13.50
2019-03-15T10:09:13.896Z,13.18
2019-03-15T10:11:44.650Z,13.05
2019-03-15T10:14:15.322Z,11.83
2019-03-15T10:16:46.175Z,12.45
2019-03-15T10:19:16.913Z,11.70
2019-03-15T10:21:48.709Z,14.35
2019-03-15T10:24:19.460Z,46.70
2019-03-15T10:26:50.317Z,12.55
2019-03-15T10:29:21.065Z,17.10
2019-03-15T10:31:52.029Z,13.03
2019-03-15T10:34:22.679Z,13.00
2019-03-15T10:36:53.433Z,14.10
2019-03-15T10:39:24.292Z,13.03
2019-03-15T10:41:55.027Z,12.33
2019-03-15T10:44:25.677Z,21.93
2019-03-15T10:46:56.551Z,13.13
2019-03-15T10:49:30.606Z,16.93
2019-03-15T10:51:59.390Z,20.82
2019-03-15T10:56:59.976Z,13.48
2019-03-15T10:59:30.728Z,15.03
2019-03-15T11:02:02.916Z,16.67
2019-03-15T11:04:33.770Z,15.90
2019-03-15T11:07:04.523Z,15.58
2019-03-15T11:09:35.259Z,16.60
2019-03-15T11:12:06.191Z,15.43
2019-03-15T11:14:36.990Z,15.65
2019-03-15T11:17:07.846Z,14.80
2019-03-15T11:19:38.702Z,15.08
2019-03-15T11:22:10.481Z,15.15
2019-03-15T11:24:43.759Z,14.53
2019-03-15T11:27:13.726Z,15.40
2019-03-15T11:29:44.462Z,15.28
2019-03-15T11:32:15.233Z,16.70
2019-03-15T11:34:45.885Z,16.35
2019-03-15T11:37:16.745Z,22.42
2019-03-15T11:39:47.476Z,15.10
2019-03-15T11:42:18.252Z,15.45
2019-03-15T11:44:48.902Z,16.35
2019-03-15T11:47:19.743Z,16.10
2019-03-15T11:49:50.395Z,15.78
2019-03-15T11:52:21.269Z,12.68
2019-03-15T11:54:51.915Z,13.20
2019-03-15T11:57:22.774Z,15.40
2019-03-15T11:59:53.733Z,14.98
2019-03-15T12:02:24.382Z,13.72
2019-03-15T12:04:55.236Z,14.93
2019-03-15T12:07:25.975Z,15.35
2019-03-15T12:09:56.753Z,15.55
2019-03-15T12:12:45.922Z,14.50
2019-03-15T12:15:18.328Z,15.80
2019-03-15T12:17:48.851Z,15.28
2019-03-15T12:20:19.600Z,16.55
2019-03-15T12:22:51.173Z,18.50
2019-03-15T12:25:21.705Z,15.72
2019-03-15T12:27:52.483Z,15.35
2019-03-15T12:30:23.333Z,14.55
2019-03-15T12:32:54.071Z,16.55
2019-03-15T12:35:24.721Z,15.00
2019-03-15T12:40:25.315Z,14.20
2019-03-15T12:42:55.960Z,16.25
2019-03-15T12:45:26.836Z,15.10
2019-03-15T12:47:57.468Z,13.28
2019-03-15T12:50:28.237Z,13.68
2019-03-15T12:52:58.909Z,13.83
2019-03-15T12:55:29.731Z,12.90
2019-03-15T12:58:00.389Z,13.43
2019-03-15T13:00:31.154Z,13.48
2019-03-15T13:03:01.793Z,12.95
2019-03-15T13:05:32.642Z,12.75
2019-03-15T13:08:03.516Z,12.80
2019-03-15T13:10:34.268Z,12.45
2019-03-15T13:13:04.903Z,13.38
2019-03-15T13:15:35.759Z,14.58
2019-03-15T13:18:06.530Z,12.50
2019-03-15T13:20:37.283Z,11.22
2019-03-15T13:23:08.144Z,12.98
2019-03-15T13:25:38.996Z,12.75
2019-03-15T13:28:09.855Z,16.23
2019-03-15T13:30:40.386Z,15.25
2019-03-15T13:33:20.359Z,17.70
2019-03-15T13:35:43.655Z,12.90
2019-03-15T13:38:14.284Z,18.40
2019-03-15T13:43:14.784Z,21.33
2019-03-15T13:45:45.437Z,24.90
2019-03-15T13:48:16.293Z,23.62
2019-03-15T13:50:47.148Z,23.02
2019-03-15T13:53:17.786Z,24.45
2019-03-15T13:55:48.554Z,23.65
2019-03-15T13:58:19.409Z,22.73
2019-03-15T14:00:50.161Z,21.42
2019-03-15T14:03:20.806Z,20.82
2019-03-15T14:08:21.385Z,20.00
2019-03-15T14:10:52.038Z,19.30
2019-03-15T14:13:22.810Z,18.98
2019-03-15T14:15:53.664Z,21.65
2019-03-15T14:18:24.298Z,21.45
2019-03-15T14:20:55.069Z,22.55
2019-03-15T14:23:26.950Z,22.05
2019-03-15T14:25:57.805Z,24.63
2019-03-15T14:28:28.644Z,22.93
2019-03-15T14:30:59.419Z,22.40
2019-03-15T14:33:30.080Z,25.97
2019-03-15T14:36:03.875Z,25.37
2019-03-15T14:38:33.611Z,27.07
2019-03-15T14:41:07.346Z,22.32
2019-03-15T14:43:36.525Z,23.90
2019-03-15T14:46:07.599Z,25.37
2019-03-15T14:48:38.374Z,26.82
2019-03-15T14:51:09.229Z,26.65
2019-03-15T14:53:39.982Z,30.23
2019-03-15T14:56:10.743Z,26.37
2019-03-15T14:58:41.390Z,41.98
2019-03-15T15:01:12.123Z,32.95
2019-03-15T15:03:42.980Z,33.50
2019-03-15T15:06:15.399Z,32.05
2019-03-15T15:08:46.021Z,25.88
2019-03-15T15:11:16.778Z,31.95
2019-03-15T15:13:47.631Z,37.78
2019-03-15T15:16:18.406Z,31.15
2019-03-15T15:18:49.038Z,28.05
2019-03-15T15:21:19.922Z,32.20
2019-03-15T15:23:58.697Z,28.75
2019-03-15T15:26:29.192Z,25.57
2019-03-15T15:29:00.047Z,24.20
2019-03-15T15:31:30.801Z,24.10
2019-03-15T15:34:01.863Z,22.45
2019-03-15T15:36:32.517Z,24.20
2019-03-15T15:39:03.374Z,22.15
2019-03-15T15:41:34.122Z,22.77
2019-03-15T15:44:07.526Z,23.80
2019-03-15T15:46:37.987Z,21.57
2019-03-15T15:49:08.736Z,22.62
2019-03-15T15:51:39.697Z,25.40
2019-03-15T15:54:10.557Z,30.77
2019-03-15T15:59:10.713Z,28.67
2019-03-15T16:01:41.569Z,24.77
2019-03-15T16:04:12.445Z,26.07
2019-03-15T16:06:43.178Z,25.97
2019-03-15T16:09:13.729Z,24.72
2019-03-15T16:11:44.602Z,24.18
2019-03-15T16:14:15.236Z,24.87
2019-03-15T16:16:45.994Z,26.25
2019-03-15T16:19:16.661Z,27.35
2019-03-15T16:21:47.499Z,27.65
2019-03-15T16:24:19.275Z,29.00
2019-03-15T16:26:50.150Z,29.15
2019-03-15T16:29:21.005Z,33.15
2019-03-15T16:31:51.653Z,34.15
2019-03-15T16:34:22.512Z,30.45
2019-03-15T16:36:53.264Z,29.85
2019-03-15T16:39:23.900Z,29.48
2019-03-15T16:44:24.383Z,28.90
2019-03-15T16:49:24.968Z,29.63
2019-03-15T16:51:55.624Z,29.25
2019-03-15T16:56:56.107Z,31.47
2019-03-15T17:01:56.718Z,29.15
2019-03-15T17:04:27.461Z,30.60
2019-03-15T17:07:00.727Z,30.23
2019-03-15T17:09:30.718Z,35.20
2019-03-15T17:12:01.467Z,31.62
2019-03-15T17:14:32.107Z,36.53
2019-03-15T17:17:02.926Z,36.63
2019-03-15T17:19:33.717Z,43.17
2019-03-15T17:22:04.362Z,40.80
2019-03-15T17:29:35.625Z,37.83
2019-03-15T17:32:06.586Z,40.28
2019-03-15T17:34:37.210Z,39.80
2019-03-15T17:37:07.981Z,41.83
2019-03-15T17:39:38.736Z,43.90
2019-03-15T17:42:09.692Z,40.43
2019-03-15T17:44:40.559Z,39.53
2019-03-15T17:47:11.183Z,42.35
2019-03-15T17:49:41.936Z,42.13
2019-03-15T17:52:12.695Z,44.40
2019-03-15T17:54:43.550Z,47.38
2019-03-15T17:57:14.317Z,43.95
2019-03-15T18:00:00.416Z,43.05
2019-03-15T18:02:31.148Z,41.80
2019-03-15T18:05:01.922Z,41.15
2019-03-15T18:07:32.765Z,41.63
2019-03-15T18:10:04.842Z,41.55
2019-03-15T18:12:35.292Z,40.05
2019-03-15T18:15:08.111Z,47.08
2019-03-15T18:17:38.743Z,49.30
2019-03-15T18:20:10.510Z,47.88
2019-03-15T18:22:40.983Z,44.95
2019-03-15T18:25:12.760Z,45.65
2019-03-15T18:27:43.613Z,46.68
2019-03-15T18:30:18.053Z,57.62
2019-03-15T18:32:48.909Z,66.57
2019-03-15T18:35:32.648Z,65.72
2019-03-15T18:37:51.845Z,46.35
2019-03-15T18:40:22.699Z,47.67
2019-03-15T18:42:53.455Z,47.88
2019-03-15T18:45:24.212Z,43.23
2019-03-15T18:47:54.862Z,43.90
2019-03-15T18:50:26.535Z,44.38
2019-03-15T18:52:57.425Z,51.37
2019-03-15T18:55:28.245Z,51.90
2019-03-15T18:57:59.001Z,56.25
2019-03-15T19:00:29.659Z,58.10
2019-03-15T19:03:00.490Z,57.73
2019-03-15T19:05:31.271Z,56.70
2019-03-15T19:08:02.000Z,67.40
2019-03-15T19:10:32.754Z,68.30
2019-03-15T19:13:03.626Z,62.67
2019-03-15T19:15:34.260Z,53.95
2019-03-15T19:20:34.862Z,45.38
2019-03-15T19:23:05.600Z,43.20
2019-03-15T19:25:38.404Z,49.38
2019-03-15T19:28:09.173Z,46.80
2019-03-15T19:30:39.927Z,48.95
2019-03-15T19:33:10.764Z,51.75
2019-03-15T19:35:41.537Z,50.78
2019-03-15T19:38:14.912Z,48.58
2019-03-15T19:40:44.359Z,54.05
2019-03-15T19:43:15.214Z,50.48
2019-03-15T19:45:45.966Z,49.03
2019-03-15T19:48:16.726Z,49.98
2019-03-15T19:50:47.387Z,47.80
2019-03-15T19:53:18.253Z,50.08
2019-03-15T19:55:48.999Z,51.35
2019-03-15T19:58:19.857Z,53.95
2019-03-15T20:00:50.592Z,52.03
2019-03-15T20:03:21.465Z,53.02
2019-03-15T20:05:52.104Z,51.20
2019-03-15T20:08:22.872Z,49.60
2019-03-15T20:10:53.827Z,49.40
2019-03-15T20:13:24.580Z,50.85
2019-03-15T20:15:55.338Z,51.20
2019-03-15T20:18:25.974Z,47.35
2019-03-15T20:20:56.844Z,47.75
2019-03-15T20:23:27.598Z,46.63
2019-03-15T20:25:59.271Z,44.10
2019-03-15T20:28:30.131Z,46.83
2019-03-15T20:31:00.890Z,101.47
2019-03-15T20:33:31.738Z,50.88
2019-03-15T20:36:02.428Z,91.65
2019-03-15T20:38:33.229Z,121.70
2019-03-15T20:41:03.986Z,89.07
2019-03-15T20:43:34.857Z,59.55
2019-03-15T20:46:05.611Z,50.95
2019-03-15T20:48:36.260Z,48.58
2019-03-15T20:51:07.120Z,82.95
2019-03-15T20:53:37.855Z,65.67
2019-03-15T20:56:08.628Z,70.08
2019-03-15T20:58:39.361Z,59.48
2019-03-15T21:01:10.116Z,60.65
2019-03-15T21:03:40.867Z,61.37
2019-03-15T21:06:11.537Z,74.97
2019-03-15T21:08:42.392Z,72.42
2019-03-15T21:11:13.260Z,71.67
2019-03-15T21:13:44.002Z,66.60
2019-03-15T21:16:18.029Z,68.17
2019-03-15T21:18:46.945Z,71.62
2019-03-15T21:21:17.579Z,64.03
2019-03-15T21:23:48.348Z,67.05
2019-03-15T21:26:20.126Z,60.17
2019-03-15T21:28:50.572Z,57.80
2019-03-15T21:31:22.143Z,59.70
2019-03-15T21:33:52.880Z,57.65
2019-03-15T21:36:23.548Z,57.60
2019-03-15T21:38:54.405Z,59.95
2019-03-15T21:41:25.168Z,59.60
2019-03-15T21:43:55.894Z,68.57
2019-03-15T21:46:26.768Z,66.45
2019-03-15T21:48:57.607Z,66.95
2019-03-15T21:51:28.381Z,73.67
2019-03-15T21:53:59.034Z,73.42
2019-03-15T21:56:29.886Z,72.05
2019-03-15T21:59:00.950Z,75.55
2019-03-15T22:01:34.447Z,75.62
2019-03-15T22:04:05.215Z,77.12
2019-03-15T22:06:35.866Z,73.37
2019-03-15T22:11:36.234Z,70.50
2019-03-15T22:16:36.942Z,78.72
2019-03-15T22:19:07.580Z,79.77
2019-03-15T22:24:08.159Z,84.05
2019-03-15T22:26:39.027Z,84.65
2019-03-15T22:29:09.885Z,88.45
2019-03-15T22:31:40.751Z,83.62
2019-03-15T22:34:11.192Z,86.60
2019-03-15T22:36:41.727Z,80.90
2019-03-15T22:39:12.483Z,77.55
2019-03-15T22:41:43.356Z,77.42
2019-03-15T22:44:14.111Z,76.30
2019-03-15T22:46:44.741Z,80.62
2019-03-15T22:49:15.495Z,78.83
2019-03-15T22:51:46.350Z,77.05
2019-03-15T22:54:17.121Z,77.65
2019-03-15T22:56:47.780Z,74.85
2019-03-15T22:59:18.629Z,74.92
2019-03-15T23:01:49.365Z,79.40
2019-03-15T23:04:20.138Z,76.97
2019-03-15T23:06:50.977Z,78.02
2019-03-15T23:09:21.731Z,75.70
2019-03-15T23:11:52.487Z,78.30
2019-03-15T23:14:23.162Z,73.78
2019-03-15T23:16:54.020Z,72.58
2019-03-15T23:19:24.764Z,69.62
2019-03-15T23:21:55.501Z,79.32
2019-03-15T23:24:26.048Z,78.40
2019-03-15T23:26:58.767Z,71.45
2019-03-15T23:29:29.523Z,69.60
2019-03-15T23:32:00.269Z,71.82
2019-03-15T23:34:31.125Z,69.10
2019-03-15T23:37:01.984Z,69.92
2019-03-15T23:39:32.644Z,69.58
2019-03-15T23:42:03.507Z,67.85
2019-03-15T23:44:34.257Z,65.57
2019-03-15T23:47:04.979Z,65.47
2019-03-15T23:49:35.853Z,63.20
2019-03-15T23:52:06.605Z,61.70
2019-03-15T23:54:37.364Z,64.40
2019-03-15T23:57:08.116Z,67.00
2019-03-15T23:59:38.857Z,66.72
